Cooper City, FL

10:59 PM EDT on July 26, 2016 (GMT -0400)
Rock Creek | | Change Station

Elev 7 ft 26.04 °N, 80.31 °W | Updated 0 second ago

Light Rain
Light Rain
80.3 °F
Feels Like 84 °F
N
13.5
Wind Variable Wind from SE
Gusts 25.5 mph

Today
High -- | Low -- °F
--% Chance of Precip.
Yesterday
High -- | Low -- °F
Precip. -- in
Pressure 30.09 in
Visibility 10.0 miles
Clouds Few 3000 ft
Heat Index 84 °F
Dew Point 72 °F
Humidity 76%
Rainfall in
Snow Depth Not available.
6:44 AM 8:10 PM
Waning Gibbous, 48% visible
METAR KOPF 270253Z AUTO 18007KT 10SM VCTS -RA FEW030 27/24 A3009 RMK AO2 PK WND 12029/0235 RAB40 SLP188 P0004 60004 T02670239 50011
Pressure 30.09 in
Visibility 10.0 miles
Clouds Few 3000 ft
Heat Index 84 °F
Dew Point 72 °F
Humidity 76%
Rainfall in
Snow Depth Not available.
6:44 AM 8:10 PM
Waning Gibbous, 48% visible
METAR KOPF 270253Z AUTO 18007KT 10SM VCTS -RA FEW030 27/24 A3009 RMK AO2 PK WND 12029/0235 RAB40 SLP188 P0004 60004 T02670239 50011

10-Day Weather Forecast

Almanac

Astronomy

Jul. 26, 2016 Rise Set
Actual Time
Civil Twilight
Nautical Twilight
Astronomical Twilight
Moon
Length of Visible Light
Length of Day
Tomorrow will be .
, % of the Moon is Illuminated

Today's Extremes

State Highs State Lows

Community

WunderPhotos

Upload Photos

1,927,784 photos uploaded!

WunderBlog® & News

Nearby

Air Quality

  Air Quality AQ Index Pollutant
Not available.

Snow Depth

Station Depth Elevation

Earthquake Activity

City Distance Mag. Time & Date
Minimum magnitude displayed is 2.5.

Coastal Water Temperatures

Place Temperature

Stations

Nearby Weather Stations

Station Location Temp. Windchill Dew Point Humidity Wind Precip. Elev Updated Type
                   

Watches & Warnings

There are currently no watches in effect.